createdAt,value
2023-04-05T00:00:05.023Z,100858.39
2023-04-05T00:02:10.357Z,100854.46
2023-04-05T00:04:16.088Z,100860.04
2023-04-05T00:06:21.579Z,100854.22
2023-04-05T00:08:26.978Z,100857.52
2023-04-05T00:10:32.475Z,100851.08
2023-04-05T00:12:37.752Z,100854.52
2023-04-05T00:14:43.006Z,100850.42
2023-04-05T00:16:48.388Z,100849.73
2023-04-05T00:18:53.920Z,100850.53
2023-04-05T00:20:59.184Z,100844.81
2023-04-05T00:23:04.533Z,100846.73
2023-04-05T00:25:10.184Z,100847.31
2023-04-05T00:27:15.470Z,100849.77
2023-04-05T00:29:20.778Z,100851.14
2023-04-05T00:31:26.100Z,100853.72
2023-04-05T00:33:31.562Z,100850.58
2023-04-05T00:35:36.938Z,100847.59
2023-04-05T00:37:42.341Z,100847.36
2023-04-05T00:39:47.637Z,100848.55
2023-04-05T00:41:52.963Z,100845.95
2023-04-05T00:43:58.261Z,100846.69
2023-04-05T00:46:03.617Z,100845.17
2023-04-05T00:48:09.152Z,100846.78
2023-04-05T00:50:14.488Z,100844.28
2023-04-05T00:52:19.783Z,100842.78
2023-04-05T00:54:25.005Z,100839.94
2023-04-05T00:56:30.279Z,100839.56
2023-04-05T00:58:35.588Z,100844.17
2023-04-05T01:00:41.702Z,100840.05
2023-04-05T01:02:47.396Z,100837.61
2023-04-05T01:04:52.713Z,100835.98
2023-04-05T01:06:57.828Z,100831.46
2023-04-05T01:09:04.353Z,100833.04
2023-04-05T01:11:09.406Z,100830.07
2023-04-05T01:13:14.451Z,100822.86
2023-04-05T01:15:19.606Z,100825.17
2023-04-05T01:17:24.674Z,100819.17
2023-04-05T01:19:29.956Z,100816.94
2023-04-05T01:21:34.989Z,100823.36
2023-04-05T01:23:40.067Z,100821.12
2023-04-05T01:25:45.093Z,100821.31
2023-04-05T01:27:50.106Z,100816.66
2023-04-05T01:29:55.166Z,100814.99
2023-04-05T01:32:00.168Z,100817.73
2023-04-05T01:34:05.267Z,100813.81
2023-04-05T01:36:10.659Z,100811.41
2023-04-05T01:38:15.723Z,100811.6
2023-04-05T01:40:20.729Z,100810.84
2023-04-05T01:42:25.778Z,100815.29
2023-04-05T01:44:30.902Z,100813.77
2023-04-05T01:46:36.138Z,100817.14
2023-04-05T01:48:41.310Z,100813.24
2023-04-05T01:50:46.386Z,100813.3
2023-04-05T01:52:51.406Z,100813.75
2023-04-05T01:54:56.431Z,100810.31
2023-04-05T01:57:01.527Z,100810.28
2023-04-05T01:59:06.999Z,100806.97
2023-04-05T02:01:12.241Z,100806.45
2023-04-05T02:03:17.559Z,100804.94
2023-04-05T02:05:22.945Z,100804.41
2023-04-05T02:07:28.006Z,100798.47
2023-04-05T02:09:33.079Z,100797.03
2023-04-05T02:11:38.128Z,100799.86
2023-04-05T02:13:43.190Z,100796.66
2023-04-05T02:15:48.278Z,100794.91
2023-04-05T02:19:41.591Z,100792.98
2023-04-05T02:21:46.779Z,100796.92
2023-04-05T02:23:52.121Z,100793.55
2023-04-05T02:25:57.175Z,100786.74
2023-04-05T02:28:02.192Z,100790.17
2023-04-05T02:30:07.370Z,100775.39
2023-04-05T02:32:12.500Z,100776.68
2023-04-05T02:34:17.524Z,100769.89
2023-04-05T02:36:22.568Z,100769.2
2023-04-05T02:38:27.621Z,100769.55
2023-04-05T02:40:32.730Z,100766.77
2023-04-05T02:42:37.751Z,100773.42
2023-04-05T02:44:42.782Z,100769.75
2023-04-05T02:46:47.924Z,100776.03
2023-04-05T02:48:53.087Z,100773.13
2023-04-05T02:50:58.144Z,100767.41
2023-04-05T02:53:03.220Z,100769.94
2023-04-05T02:55:08.248Z,100770.56
2023-04-05T02:57:13.294Z,100767.04
2023-04-05T02:59:18.536Z,100764.95
2023-04-05T03:01:23.805Z,100761.73
2023-04-05T03:03:29.014Z,100766.39
2023-04-05T03:05:34.188Z,100765.89
2023-04-05T03:07:39.208Z,100761.14
2023-04-05T03:09:44.320Z,100761.02
2023-04-05T03:11:49.412Z,100762.52
2023-04-05T03:13:54.453Z,100759.36
2023-04-05T03:15:59.588Z,100758.54
2023-04-05T03:18:04.673Z,100759.66
2023-04-05T03:20:09.737Z,100760.77
2023-04-05T03:22:14.787Z,100759.89
2023-04-05T03:24:19.818Z,100759.98
2023-04-05T03:26:24.874Z,100761.66
2023-04-05T03:28:29.890Z,100761.91
2023-04-05T03:30:35.007Z,100762
2023-04-05T03:32:40.343Z,100761.91
2023-04-05T03:34:45.435Z,100754.89
2023-04-05T03:36:50.496Z,100756.31
2023-04-05T03:38:55.523Z,100755.44
2023-04-05T03:41:00.666Z,100743.13
2023-04-05T03:43:05.729Z,100744.25
2023-04-05T03:45:10.742Z,100746.09
2023-04-05T03:47:15.882Z,100744.48
2023-04-05T03:49:20.929Z,100744.84
2023-04-05T03:51:25.960Z,100742.98
2023-04-05T03:53:30.998Z,100740.64
2023-04-05T03:55:36.024Z,100745.06
2023-04-05T03:57:41.420Z,100741.48
2023-04-05T03:59:46.504Z,100740.69
2023-04-05T04:01:51.546Z,100742.39
2023-04-05T04:03:56.685Z,100746
2023-04-05T04:06:01.879Z,100745.22
2023-04-05T04:08:06.988Z,100752.02
2023-04-05T04:10:12.031Z,100759.24
2023-04-05T04:12:17.041Z,100758.91
2023-04-05T04:14:22.176Z,100763.77
2023-04-05T04:16:29.903Z,100756.16
2023-04-05T04:18:35.114Z,100758.91
2023-04-05T04:20:40.126Z,100756.77
2023-04-05T04:22:45.211Z,100753.19
2023-04-05T04:24:50.306Z,100758.93
2023-04-05T04:26:55.325Z,100758.31
2023-04-05T04:29:00.379Z,100761.38
2023-04-05T04:31:05.431Z,100762.17
2023-04-05T04:33:10.894Z,100762.8
2023-04-05T04:35:16.060Z,100763.19
2023-04-05T04:37:21.189Z,100766.53
2023-04-05T04:39:26.369Z,100762.48
2023-04-05T04:41:31.405Z,100767.7
2023-04-05T04:43:36.436Z,100773.9
2023-04-05T04:45:42.052Z,100773.23
2023-04-05T04:47:47.798Z,100770.99
2023-04-05T04:49:53.022Z,100766.63
2023-04-05T04:51:58.025Z,100774.31
2023-04-05T04:54:03.105Z,100767.66
2023-04-05T04:56:08.106Z,100767.2
2023-04-05T04:58:13.174Z,100768.66
2023-04-05T05:00:18.261Z,100767.23
2023-04-05T05:02:23.258Z,100763.09
2023-04-05T05:04:28.488Z,100761.84
2023-04-05T05:06:33.699Z,100758.53
2023-04-05T05:08:38.708Z,100754.96
2023-04-05T05:10:44.351Z,100754.69
2023-04-05T05:12:49.382Z,100756.87
2023-04-05T05:14:54.528Z,100764.79
2023-04-05T05:16:59.890Z,100766.44
2023-04-05T05:19:05.199Z,100768.49
2023-04-05T05:21:10.424Z,100768.19
2023-04-05T05:23:15.553Z,100770.17
2023-04-05T05:25:20.555Z,100773.2
2023-04-05T05:27:25.718Z,100773.45
2023-04-05T05:29:30.752Z,100773.83
2023-04-05T05:31:35.919Z,100776.11
2023-04-05T05:33:40.993Z,100782.07
2023-04-05T05:35:46.212Z,100778.96
2023-04-05T05:37:51.431Z,100781.25
2023-04-05T05:39:56.466Z,100782.68
2023-04-05T05:42:01.576Z,100783.95
2023-04-05T05:44:06.658Z,100779.97
2023-04-05T05:46:11.736Z,100786.91
2023-04-05T05:48:16.874Z,100787.81
2023-04-05T05:50:22.055Z,100784.46
2023-04-05T05:52:27.199Z,100783.07
2023-04-05T05:54:32.407Z,100779.84
2023-04-05T05:56:37.784Z,100780.6
2023-04-05T05:58:42.804Z,100776.28
2023-04-05T06:00:50.665Z,100780.71
2023-04-05T06:02:55.959Z,100784.77
2023-04-05T06:05:01.426Z,100783.3
2023-04-05T06:07:06.782Z,100784.2
2023-04-05T06:09:11.861Z,100783.1
2023-04-05T06:11:16.986Z,100785.05
2023-04-05T06:13:22.041Z,100782.03
2023-04-05T06:15:27.311Z,100781.81
2023-04-05T06:17:32.524Z,100784.23
2023-04-05T06:19:37.785Z,100786.51
2023-04-05T06:21:42.834Z,100780.16
2023-04-05T06:23:47.877Z,100785.37
2023-04-05T06:25:53.026Z,100783.81
2023-04-05T06:27:58.204Z,100783.42
2023-04-05T06:30:03.367Z,100787.48
2023-04-05T06:32:08.477Z,100783.6
2023-04-05T06:34:13.651Z,100779.73
2023-04-05T06:36:18.738Z,100777.14
2023-04-05T06:38:23.818Z,100783.59
2023-04-05T06:40:28.846Z,100780.84
2023-04-05T06:42:34.052Z,100780.55
2023-04-05T06:44:39.107Z,100777.9
2023-04-05T06:46:44.370Z,100774.66
2023-04-05T06:48:49.531Z,100780.74
2023-04-05T06:50:54.597Z,100779.58
2023-04-05T06:52:59.786Z,100777.97
2023-04-05T06:55:04.894Z,100779.98
2023-04-05T06:57:10.365Z,100779.61
2023-04-05T06:59:15.488Z,100780.77
2023-04-05T07:01:21.236Z,100782.43
2023-04-05T07:03:26.544Z,100781.72
2023-04-05T07:05:31.792Z,100778.11
2023-04-05T07:07:36.874Z,100780.34
2023-04-05T07:09:41.934Z,100775.95
2023-04-05T07:11:47.787Z,100774.42
2023-04-05T07:13:52.963Z,100778.34
2023-04-05T07:15:58.104Z,100777.02
2023-04-05T07:18:03.480Z,100780.66
2023-04-05T07:20:08.571Z,100781.66
2023-04-05T07:22:13.742Z,100786.23
2023-04-05T07:24:18.860Z,100786.17
2023-04-05T07:26:23.969Z,100789.34
2023-04-05T07:28:29.047Z,100792.07
2023-04-05T07:30:34.251Z,100795.16
2023-04-05T07:32:40.135Z,100795.58
2023-04-05T07:34:45.525Z,100795.27
2023-04-05T07:36:50.684Z,100795.22
2023-04-05T07:38:55.843Z,100789.1
2023-04-05T07:41:01.394Z,100791.2
2023-04-05T07:43:06.563Z,100792.89
2023-04-05T07:45:11.779Z,100789.17
2023-04-05T07:47:17.101Z,100792.7
2023-04-05T07:49:22.215Z,100792.05
2023-04-05T07:51:27.298Z,100796.28
2023-04-05T07:53:32.881Z,100792.47
2023-04-05T07:55:38.037Z,100792.96
2023-04-05T07:57:43.282Z,100794.55
2023-04-05T07:59:48.458Z,100790.68
2023-04-05T08:01:57.183Z,100788.14
2023-04-05T08:04:18.184Z,100789.59
2023-04-05T08:06:23.219Z,100789.98
2023-04-05T08:08:28.617Z,100791.73
2023-04-05T08:10:33.686Z,100791.19
2023-04-05T08:12:40.306Z,100787.05
2023-04-05T08:14:45.506Z,100789.72
2023-04-05T08:16:50.617Z,100786.39
2023-04-05T08:18:55.658Z,100783.05
2023-04-05T08:21:00.830Z,100782.16
2023-04-05T08:23:05.853Z,100779.84
2023-04-05T08:25:10.977Z,100783.47
2023-04-05T08:27:16.237Z,100775.95
2023-04-05T08:29:21.877Z,100774.22
2023-04-05T08:31:27.219Z,100773.89
2023-04-05T08:33:32.660Z,100772.59
2023-04-05T08:35:37.845Z,100774.52
2023-04-05T08:37:42.966Z,100768.84
2023-04-05T08:39:48.212Z,100769.16
2023-04-05T08:41:53.378Z,100769.55
2023-04-05T08:43:58.535Z,100765.97
2023-04-05T08:46:03.930Z,100766.77
2023-04-05T08:48:09.353Z,100761.97
2023-04-05T08:50:14.558Z,100761.86
2023-04-05T08:52:19.802Z,100764.73
2023-04-05T08:54:24.923Z,100762.28
2023-04-05T08:56:30.569Z,100765.53
2023-04-05T08:58:35.704Z,100762.16
2023-04-05T09:00:41.221Z,100766.11
2023-04-05T09:02:46.928Z,100763.77
2023-04-05T09:04:52.223Z,100765.78
2023-04-05T09:06:57.875Z,100761.87
2023-04-05T09:09:03.166Z,100761.56
2023-04-05T09:11:08.241Z,100760.96
2023-04-05T09:13:13.377Z,100761
2023-04-05T09:15:18.461Z,100756.61
2023-04-05T09:17:23.530Z,100760.08
2023-04-05T09:19:28.598Z,100756.78
2023-04-05T09:21:33.671Z,100757.67
2023-04-05T09:23:38.704Z,100752.53
2023-04-05T09:25:43.839Z,100753.36
2023-04-05T09:27:48.866Z,100745.3
2023-04-05T09:29:54.121Z,100744.21
2023-04-05T09:31:59.251Z,100740.95
2023-04-05T09:34:04.372Z,100745.27
2023-04-05T09:36:09.630Z,100744.86
2023-04-05T09:38:14.922Z,100741.88
2023-04-05T09:40:20.510Z,100746.09
2023-04-05T09:42:25.681Z,100743.16
2023-04-05T09:44:30.791Z,100741.25
2023-04-05T09:46:36.077Z,100739.06
2023-04-05T09:48:41.783Z,100739.28
2023-04-05T09:50:46.885Z,100743.88
2023-04-05T09:52:52.004Z,100741.16
2023-04-05T09:54:57.163Z,100739.2
2023-04-05T09:57:02.262Z,100730.86
2023-04-05T09:59:07.632Z,100732.94
2023-04-05T10:01:18.492Z,100732.34
2023-04-05T10:03:23.937Z,100729.08
2023-04-05T10:05:29.241Z,100732.41
2023-04-05T10:07:34.353Z,100734.73
2023-04-05T10:09:39.420Z,100730.09
2023-04-05T10:11:44.610Z,100732.69
2023-04-05T10:13:49.679Z,100731.74
2023-04-05T10:20:48.606Z,100722.24
2023-04-05T10:22:53.744Z,100723.03
2023-04-05T10:24:58.832Z,100718.02
2023-04-05T10:27:03.923Z,100717.59
2023-04-05T10:29:09.555Z,100719.73
2023-04-05T10:31:36.845Z,100716.5
2023-04-05T10:33:44.177Z,100708.64
2023-04-05T10:35:49.595Z,100707.21
2023-04-05T10:37:54.928Z,100702.02
2023-04-05T10:40:00.080Z,100702.35
2023-04-05T10:42:05.138Z,100698.37
2023-04-05T10:44:26.591Z,100701.41
2023-04-05T10:46:32.276Z,100691.69
2023-04-05T10:48:37.731Z,100691.15
2023-04-05T10:50:43.278Z,100696.29
2023-04-05T10:52:48.815Z,100691.08
2023-04-05T10:54:53.932Z,100691.18
2023-04-05T10:56:59.140Z,100689.88
2023-04-05T10:59:04.362Z,100684.75
2023-04-05T11:01:09.953Z,100687.33
2023-04-05T11:03:15.458Z,100686.45
2023-04-05T11:05:20.677Z,100687.56
2023-04-05T11:07:25.839Z,100694.86
2023-04-05T11:09:31.054Z,100689.52
2023-04-05T11:11:36.202Z,100686.14
2023-04-05T11:13:41.427Z,100684.81
2023-04-05T11:15:46.986Z,100690.81
2023-04-05T11:17:52.155Z,100688.93
2023-04-05T11:19:58.600Z,100684.37
2023-04-05T11:22:03.688Z,100685.19
2023-04-05T11:24:08.986Z,100682.88
2023-04-05T11:26:14.037Z,100684.64
2023-04-05T11:28:19.093Z,100682.31
2023-04-05T11:30:24.324Z,100684.84
2023-04-05T11:32:29.491Z,100685.39
2023-04-05T11:34:34.834Z,100687.19
2023-04-05T11:36:39.989Z,100690.05
2023-04-05T11:38:45.065Z,100683.55
2023-04-05T11:40:50.119Z,100683.55
2023-04-05T11:42:55.341Z,100685.77
2023-04-05T11:45:00.362Z,100681.17
2023-04-05T11:47:05.621Z,100680.77
2023-04-05T11:49:10.876Z,100683.14
2023-04-05T11:51:15.982Z,100674.86
2023-04-05T11:53:21.190Z,100673.61
2023-04-05T11:55:26.304Z,100677.8
2023-04-05T11:57:31.709Z,100673.67
2023-04-05T11:59:36.842Z,100670.47
2023-04-05T12:01:42.069Z,100671.84
2023-04-05T12:03:48.011Z,100671.67
2023-04-05T12:05:53.259Z,100671.47
2023-04-05T12:07:58.376Z,100682.23
2023-04-05T12:10:03.585Z,100682.88
2023-04-05T12:12:09.005Z,100682.73
2023-04-05T12:14:14.307Z,100680.77
2023-04-05T12:16:19.485Z,100687.52
2023-04-05T12:18:24.732Z,100687.27
2023-04-05T12:20:29.733Z,100682.88
2023-04-05T12:22:34.755Z,100678.65
2023-04-05T12:24:39.739Z,100679.09
2023-04-05T12:26:44.809Z,100676.58
2023-04-05T12:28:49.828Z,100674.16
2023-04-05T12:30:55.017Z,100668.02
2023-04-05T12:33:00.234Z,100668.63
2023-04-05T12:35:05.451Z,100667.48
2023-04-05T12:37:10.576Z,100660.22
2023-04-05T12:39:15.930Z,100658.17
2023-04-05T12:41:21.157Z,100661.55
2023-04-05T12:43:26.364Z,100653.41
2023-04-05T12:45:31.526Z,100652.08
2023-04-05T12:47:36.722Z,100649.45
2023-04-05T12:49:41.949Z,100649.08
2023-04-05T12:51:47.374Z,100648.43
2023-04-05T12:53:52.544Z,100646.18
2023-04-05T12:55:57.660Z,100647.81
2023-04-05T12:58:02.804Z,100644.2
2023-04-05T13:00:08.071Z,100649.76
2023-04-05T13:02:13.207Z,100648.91
2023-04-05T13:04:19.294Z,100650.85
2023-04-05T13:06:24.425Z,100659.09
2023-04-05T13:08:29.432Z,100669.18
2023-04-05T13:10:34.496Z,100665.77
2023-04-05T13:12:39.679Z,100674.77
2023-04-05T13:14:44.814Z,100675.8
2023-04-05T13:16:49.933Z,100680.66
2023-04-05T13:18:55.044Z,100690.75
2023-04-05T13:21:00.149Z,100689.42
2023-04-05T13:23:05.325Z,100685.33
2023-04-05T13:25:10.438Z,100680.5
2023-04-05T13:27:15.643Z,100681.24
2023-04-05T13:29:20.871Z,100683.22
2023-04-05T13:31:26.049Z,100682.03
2023-04-05T13:33:31.296Z,100677.8
2023-04-05T13:35:36.438Z,100677.19
2023-04-05T13:37:41.571Z,100673.51
2023-04-05T13:39:46.798Z,100676.41
2023-04-05T13:41:51.808Z,100675.01
2023-04-05T13:43:56.848Z,100665.47
2023-04-05T13:46:05.280Z,100670.2
2023-04-05T13:48:10.639Z,100664.41
2023-04-05T13:50:15.990Z,100661.34
2023-04-05T13:52:21.131Z,100652.63
2023-04-05T13:54:26.168Z,100657.83
2023-04-05T13:56:31.338Z,100655
2023-04-05T13:58:36.468Z,100657.29
2023-04-05T14:00:42.179Z,100654.12
2023-04-05T14:02:48.131Z,100648.09
2023-04-05T14:04:53.507Z,100647.23
2023-04-05T14:06:58.647Z,100647.58
2023-04-05T14:09:03.788Z,100652.17
2023-04-05T14:11:08.912Z,100650.37
2023-04-05T14:13:13.996Z,100649.75
2023-04-05T14:15:19.098Z,100650.27
2023-04-05T14:17:24.315Z,100648.56
2023-04-05T14:19:29.480Z,100650.06
2023-04-05T14:21:34.549Z,100644.81
2023-04-05T14:23:39.747Z,100644.13
2023-04-05T14:25:44.900Z,100650.09
2023-04-05T14:27:50.072Z,100650.2
2023-04-05T14:29:55.118Z,100646.69
2023-04-05T14:32:00.430Z,100633.64
2023-04-05T14:34:05.628Z,100636.23
2023-04-05T14:36:10.740Z,100633.03
2023-04-05T14:38:16.350Z,100635.78
2023-04-05T14:40:21.545Z,100635.28
2023-04-05T14:42:48.208Z,100638.44
2023-04-05T14:44:54.514Z,100636.73
2023-04-05T14:46:59.603Z,100638.1
2023-04-05T14:49:04.847Z,100641.55
2023-04-05T14:51:09.977Z,100639.97
2023-04-05T14:53:15.488Z,100639.8
2023-04-05T14:55:21.115Z,100636.98
2023-04-05T14:57:26.224Z,100636.66
2023-04-05T14:59:31.601Z,100638.64
2023-04-05T15:01:36.910Z,100635.78
2023-04-05T15:03:42.513Z,100633.73
2023-04-05T15:05:47.732Z,100628.83
2023-04-05T15:07:52.842Z,100633.11
2023-04-05T15:09:58.065Z,100632.3
2023-04-05T15:12:03.137Z,100631
2023-04-05T15:14:18.190Z,100626.59
2023-04-05T15:16:35.861Z,100621.24
2023-04-05T15:18:41.059Z,100624.55
2023-04-05T15:20:46.202Z,100628.61
2023-04-05T15:22:51.404Z,100628.23
2023-04-05T15:24:56.569Z,100627.72
2023-04-05T15:27:01.687Z,100632.14
2023-04-05T15:29:06.931Z,100636.61
2023-04-05T15:31:12.229Z,100632.79
2023-04-05T15:33:17.523Z,100628.33
2023-04-05T15:35:22.652Z,100629.92
2023-04-05T15:37:27.889Z,100631.05
2023-04-05T15:39:32.973Z,100632.04
2023-04-05T15:41:38.151Z,100630.44
2023-04-05T15:43:43.357Z,100630.03
2023-04-05T15:45:48.645Z,100632.45
2023-04-05T15:47:53.910Z,100631.05
2023-04-05T15:49:59.872Z,100638.01
2023-04-05T15:52:05.168Z,100638.21
2023-04-05T15:54:10.545Z,100637.16
2023-04-05T15:56:15.623Z,100640.8
2023-04-05T15:58:20.830Z,100632.38
2023-04-05T16:00:25.923Z,100632.22
2023-04-05T16:02:31.050Z,100629.89
2023-04-05T16:04:36.174Z,100631.55
2023-04-05T16:06:41.377Z,100632.47
2023-04-05T16:08:46.675Z,100631.69
2023-04-05T16:10:51.701Z,100629.91
2023-04-05T16:12:56.883Z,100626.37
2023-04-05T16:15:02.111Z,100627.59
2023-04-05T16:17:07.494Z,100631.24
2023-04-05T16:19:12.788Z,100630.83
2023-04-05T16:21:17.822Z,100634.89
2023-04-05T16:23:23.071Z,100633.83
2023-04-05T16:25:28.253Z,100636.25
2023-04-05T16:27:33.407Z,100637.3
2023-04-05T16:29:39.101Z,100639.24
2023-04-05T16:31:44.459Z,100640.61
2023-04-05T16:33:49.697Z,100634.98
2023-04-05T16:35:55.066Z,100636.45
2023-04-05T16:38:00.362Z,100638.22
2023-04-05T16:40:05.478Z,100645.04
2023-04-05T16:42:10.702Z,100638.7
2023-04-05T16:44:15.907Z,100637.91
2023-04-05T16:46:21.114Z,100638.69
2023-04-05T16:48:26.440Z,100640.53
2023-04-05T16:50:31.538Z,100638.17
2023-04-05T16:52:36.655Z,100641.11
2023-04-05T16:54:41.793Z,100639.95
2023-04-05T16:56:46.876Z,100640.25
2023-04-05T16:58:52.108Z,100645.95
2023-04-05T17:00:57.344Z,100643.63
2023-04-05T17:03:02.855Z,100636.4
2023-04-05T17:05:08.498Z,100638.16
2023-04-05T17:07:13.672Z,100638.61
2023-04-05T17:09:18.748Z,100636.02
2023-04-05T17:11:24.003Z,100636.3
2023-04-05T17:13:29.320Z,100632.98
2023-04-05T17:15:34.511Z,100634.25
2023-04-05T17:17:39.823Z,100636.33
2023-04-05T17:19:45.260Z,100636.47
2023-04-05T17:21:50.358Z,100641.03
2023-04-05T17:23:55.442Z,100644.27
2023-04-05T17:26:00.673Z,100645.7
2023-04-05T17:28:05.903Z,100642.86
2023-04-05T17:30:11.134Z,100645.42
2023-04-05T17:32:16.225Z,100649.47
2023-04-05T17:34:21.341Z,100651.76
2023-04-05T17:36:26.528Z,100653.63
2023-04-05T17:38:31.584Z,100653.05
2023-04-05T17:40:36.733Z,100657.65
2023-04-05T17:42:42.010Z,100658.49
2023-04-05T17:44:47.077Z,100664.56
2023-04-05T17:47:08.870Z,100665.96
2023-04-05T17:49:15.071Z,100663.3
2023-04-05T17:51:20.281Z,100669.41
2023-04-05T17:53:25.470Z,100668.19
2023-04-05T17:55:33.417Z,100669.21
2023-04-05T17:57:38.573Z,100675.31
2023-04-05T17:59:44.167Z,100680.6
2023-04-05T18:01:49.558Z,100681.25
2023-04-05T18:03:55.795Z,100681.9
2023-04-05T18:06:01.226Z,100682.44
2023-04-05T18:08:06.304Z,100682.65
2023-04-05T18:10:11.439Z,100683.53
2023-04-05T18:12:16.597Z,100684.25
2023-04-05T18:14:21.902Z,100688.11
2023-04-05T18:16:27.334Z,100687.31
2023-04-05T18:18:32.456Z,100687.48
2023-04-05T18:20:37.490Z,100689.77
2023-04-05T18:22:42.580Z,100688.75
2023-04-05T18:24:47.806Z,100687.86
2023-04-05T18:26:52.885Z,100689.73
2023-04-05T18:28:57.924Z,100695.7
2023-04-05T18:31:02.995Z,100695.7
2023-04-05T18:33:08.184Z,100695.63
2023-04-05T18:35:13.484Z,100701.36
2023-04-05T18:37:18.657Z,100700.58
2023-04-05T18:39:24.573Z,100699.38
2023-04-05T18:41:31.744Z,100707.31
2023-04-05T18:43:36.873Z,100704.55
2023-04-05T18:45:42.242Z,100708.97
2023-04-05T18:47:47.425Z,100712.03
2023-04-05T18:49:52.592Z,100717.17
2023-04-05T18:51:57.663Z,100717.64
2023-04-05T18:54:02.751Z,100718.49
2023-04-05T18:56:07.851Z,100716.51
2023-04-05T18:58:13.032Z,100718.89
2023-04-05T19:00:18.130Z,100718.61
2023-04-05T19:02:23.382Z,100718.3
2023-04-05T19:04:28.771Z,100721.52
2023-04-05T19:06:33.963Z,100717.8
2023-04-05T19:08:39.044Z,100725.3
2023-04-05T19:10:44.218Z,100723.69
2023-04-05T19:12:49.288Z,100724.42
2023-04-05T19:14:54.371Z,100725.51
2023-04-05T19:16:59.510Z,100728.95
2023-04-05T19:19:04.589Z,100728.13
2023-04-05T19:21:10.454Z,100728.59
2023-04-05T19:23:15.523Z,100724.06
2023-04-05T19:25:20.645Z,100725.33
2023-04-05T19:27:25.824Z,100723.84
2023-04-05T19:29:30.895Z,100726.44
2023-04-05T19:31:36.102Z,100727.94
2023-04-05T19:33:41.271Z,100728.8
2023-04-05T19:35:46.449Z,100731.16
2023-04-05T19:37:51.616Z,100732.58
2023-04-05T19:39:56.706Z,100732.08
2023-04-05T19:42:01.841Z,100733.43
2023-04-05T19:44:06.910Z,100735.7
2023-04-05T19:46:12.142Z,100732.84
2023-04-05T19:48:17.422Z,100729.7
2023-04-05T19:50:27.046Z,100727.76
2023-04-05T19:52:35.101Z,100728.2
2023-04-05T19:54:40.229Z,100724.17
2023-04-05T19:56:45.459Z,100723.97
2023-04-05T19:58:50.797Z,100726.84
2023-04-05T20:00:55.939Z,100723.3
2023-04-05T20:03:01.280Z,100723.36
2023-04-05T20:05:06.479Z,100723.79
2023-04-05T20:07:11.537Z,100717.51
2023-04-05T20:09:16.599Z,100718.61
2023-04-05T20:11:21.712Z,100714.45
2023-04-05T20:13:26.791Z,100712.92
2023-04-05T20:15:31.985Z,100709.69
2023-04-05T20:17:37.108Z,100709.76
2023-04-05T20:19:42.256Z,100704.67
2023-04-05T20:21:47.420Z,100704.77
2023-04-05T20:23:52.585Z,100702.56
2023-04-05T20:25:57.677Z,100698.2
2023-04-05T20:28:02.803Z,100696.95
2023-04-05T20:30:07.987Z,100693.17
2023-04-05T20:32:13.133Z,100691.17
2023-04-05T20:34:18.237Z,100685.16
2023-04-05T20:36:23.331Z,100689.49
2023-04-05T20:38:28.424Z,100691.47
2023-04-05T20:40:33.504Z,100685.65
2023-04-05T20:42:38.709Z,100686.89
2023-04-05T20:44:43.802Z,100685.23
2023-04-05T20:46:48.823Z,100681.28
2023-04-05T20:48:53.876Z,100683.67
2023-04-05T20:50:58.963Z,100685.67
2023-04-05T20:53:04.226Z,100688.18
2023-04-05T20:55:09.373Z,100686.88
2023-04-05T20:57:14.514Z,100685.33
2023-04-05T20:59:19.706Z,100687.2
2023-04-05T21:01:25.112Z,100684.5
2023-04-05T21:03:30.566Z,100685.48
2023-04-05T21:05:36.065Z,100694.21
2023-04-05T21:07:41.156Z,100686.73
2023-04-05T21:09:46.232Z,100684.29
2023-04-05T21:11:51.362Z,100683.31
2023-04-05T21:13:56.414Z,100685.08
2023-04-05T21:16:01.711Z,100684.73
2023-04-05T21:18:07.260Z,100682.78
2023-04-05T21:20:12.597Z,100685.07
2023-04-05T21:22:17.667Z,100681.32
2023-04-05T21:24:22.784Z,100681.26
2023-04-05T21:26:27.959Z,100683.8
2023-04-05T21:28:33.015Z,100681.55
2023-04-05T21:30:38.180Z,100676.39
2023-04-05T21:32:43.325Z,100696.78
2023-04-05T21:34:48.417Z,100696.17
2023-04-05T21:36:53.484Z,100696.22
2023-04-05T21:38:58.566Z,100701.16
2023-04-05T21:41:03.711Z,100698.36
2023-04-05T21:43:08.766Z,100697.65
2023-04-05T21:45:14.093Z,100702.39
2023-04-05T21:47:19.167Z,100704.14
2023-04-05T21:49:24.274Z,100700.81
2023-04-05T21:51:29.400Z,100695.95
2023-04-05T21:53:34.511Z,100693.17
2023-04-05T21:55:39.583Z,100694.61
2023-04-05T21:57:44.988Z,100690.97
2023-04-05T21:59:50.124Z,100691.16
2023-04-05T22:01:55.286Z,100690.62
2023-04-05T22:04:00.535Z,100688.89
2023-04-05T22:06:06.162Z,100688.32
2023-04-05T22:08:12.326Z,100693.14
2023-04-05T22:10:17.573Z,100693.7
2023-04-05T22:12:22.647Z,100693.17
2023-04-05T22:14:27.725Z,100693.31
2023-04-05T22:16:32.900Z,100694.73
2023-04-05T22:18:38.061Z,100692.8
2023-04-05T22:20:43.151Z,100693.56
2023-04-05T22:22:48.289Z,100691.31
2023-04-05T22:24:53.370Z,100699.67
2023-04-05T22:26:58.446Z,100699.63
2023-04-05T22:29:03.761Z,100696.88
2023-04-05T22:31:08.966Z,100693.8
2023-04-05T22:33:14.538Z,100694.72
2023-04-05T22:35:19.679Z,100699.66
2023-04-05T22:37:24.787Z,100700.09
2023-04-05T22:39:29.823Z,100697.42
2023-04-05T22:41:34.840Z,100699.95
2023-04-05T22:43:39.903Z,100699.45
2023-04-05T22:45:45.005Z,100698.02
2023-04-05T22:47:51.933Z,100695.45
2023-04-05T22:49:57.161Z,100697.91
2023-04-05T22:52:02.238Z,100695.53
2023-04-05T22:54:07.298Z,100694.61
2023-04-05T22:56:12.376Z,100698.44
2023-04-05T22:58:17.544Z,100699.16
2023-04-05T23:00:22.647Z,100696.33
2023-04-05T23:02:27.698Z,100700.19
2023-04-05T23:04:32.861Z,100702.55
2023-04-05T23:06:38.181Z,100703.19
2023-04-05T23:08:43.204Z,100700.43
2023-04-05T23:10:48.395Z,100699.78
2023-04-05T23:12:53.568Z,100699.01
2023-04-05T23:14:58.633Z,100698.63
2023-04-05T23:17:03.764Z,100698.91
2023-04-05T23:19:09.382Z,100696.26
2023-04-05T23:21:15.196Z,100699.19
2023-04-05T23:23:20.235Z,100694.89
2023-04-05T23:25:25.377Z,100694.31
2023-04-05T23:27:30.478Z,100700.97
2023-04-05T23:29:35.633Z,100696.6
2023-04-05T23:31:41.494Z,100696.4
2023-04-05T23:33:52.950Z,100696.98
2023-04-05T23:35:58.039Z,100692.76
2023-04-05T23:38:03.304Z,100698.31
2023-04-05T23:40:08.478Z,100692.31
2023-04-05T23:42:13.603Z,100695.38
2023-04-05T23:44:18.779Z,100696.58
2023-04-05T23:46:23.989Z,100688.77
2023-04-05T23:48:29.217Z,100691.94
2023-04-05T23:50:34.285Z,100690.17
2023-04-05T23:52:39.491Z,100684.1
2023-04-05T23:54:44.793Z,100686.83
2023-04-05T23:56:49.873Z,100693.95
2023-04-05T23:58:55.021Z,100689.63
